createdAt,value
2023-04-16T00:01:40.332Z,97672.28
2023-04-16T00:04:07.599Z,97676.34
2023-04-16T00:06:34.663Z,97679.59
2023-04-16T00:09:01.531Z,97672.66
2023-04-16T00:11:28.396Z,97674.88
2023-04-16T00:13:55.385Z,97672.53
2023-04-16T00:16:22.263Z,97673.66
2023-04-16T00:18:49.235Z,97664.66
2023-04-16T00:21:16.196Z,97668.47
2023-04-16T00:23:43.069Z,97673.28
2023-04-16T00:26:09.897Z,97671.28
2023-04-16T00:28:36.984Z,97675.87
2023-04-16T00:31:03.974Z,97679.41
2023-04-16T00:33:30.891Z,97682.19
2023-04-16T00:35:57.767Z,97678.22
2023-04-16T00:38:24.663Z,97667.28
2023-04-16T00:40:51.552Z,97676.00
2023-04-16T00:43:24.875Z,97670.63
2023-04-16T00:45:53.354Z,97676.06
2023-04-16T00:48:21.163Z,97673.47
2023-04-16T00:50:48.744Z,97671.38
2023-04-16T00:53:16.308Z,97674.31
2023-04-16T00:55:43.905Z,97669.69
2023-04-16T00:58:10.957Z,97670.47
2023-04-16T01:00:38.037Z,97676.69
2023-04-16T01:03:05.417Z,97673.06
2023-04-16T01:05:32.442Z,97669.28
2023-04-16T01:08:01.304Z,97676.03
2023-04-16T01:10:28.282Z,97681.81
2023-04-16T01:12:55.168Z,97681.81
2023-04-16T01:15:22.043Z,97680.16
2023-04-16T01:17:49.286Z,97684.69
2023-04-16T01:20:16.253Z,97680.78
2023-04-16T01:22:43.142Z,97682.75
2023-04-16T01:25:14.573Z,97684.41
2023-04-16T01:27:41.564Z,97684.22
2023-04-16T01:30:08.807Z,97691.06
2023-04-16T01:32:35.789Z,97688.62
2023-04-16T01:35:02.681Z,97681.75
2023-04-16T01:37:29.889Z,97688.75
2023-04-16T01:39:56.836Z,97690.91
2023-04-16T01:42:23.708Z,97696.72
2023-04-16T01:44:50.590Z,97698.19
2023-04-16T01:47:17.560Z,97696.84
2023-04-16T01:49:45.805Z,97703.12
2023-04-16T01:52:12.659Z,97704.31
2023-04-16T01:54:39.552Z,97699.56
2023-04-16T01:57:06.417Z,97701.25
2023-04-16T01:59:33.315Z,97708.63
2023-04-16T02:02:13.211Z,97709.13
2023-04-16T02:04:45.406Z,97707.72
2023-04-16T02:07:12.865Z,97705.41
2023-04-16T02:09:40.995Z,97704.56
2023-04-16T02:12:08.218Z,97706.63
2023-04-16T02:14:35.153Z,97704.75
2023-04-16T02:17:02.096Z,97700.63
2023-04-16T02:19:29.085Z,97701.69
2023-04-16T02:21:55.964Z,97705.03
2023-04-16T02:24:22.861Z,97704.66
2023-04-16T02:26:49.707Z,97699.31
2023-04-16T02:29:16.883Z,97705.06
2023-04-16T02:31:44.633Z,97705.78
2023-04-16T02:34:11.591Z,97705.91
2023-04-16T02:36:39.101Z,97706.16
2023-04-16T02:39:05.989Z,97700.31
2023-04-16T02:41:32.918Z,97696.81
2023-04-16T02:43:59.845Z,97696.34
2023-04-16T02:46:26.870Z,97698.72
2023-04-16T02:48:53.938Z,97698.00
2023-04-16T02:51:20.790Z,97703.66
2023-04-16T02:53:47.668Z,97704.31
2023-04-16T02:56:14.533Z,97711.91
2023-04-16T02:58:41.508Z,97706.66
2023-04-16T03:01:08.394Z,97699.69
2023-04-16T03:03:35.749Z,97710.22
2023-04-16T03:06:02.645Z,97708.84
2023-04-16T03:08:29.495Z,97715.81
2023-04-16T03:10:56.457Z,97713.50
2023-04-16T03:13:23.341Z,97713.47
2023-04-16T03:15:50.339Z,97709.00
2023-04-16T03:18:17.280Z,97711.50
2023-04-16T03:20:44.242Z,97713.91
2023-04-16T03:23:11.093Z,97710.91
2023-04-16T03:25:40.647Z,97714.66
2023-04-16T03:28:07.554Z,97717.62
2023-04-16T03:30:34.397Z,97721.34
2023-04-16T03:33:01.364Z,97729.75
2023-04-16T03:35:28.334Z,97733.47
2023-04-16T03:37:55.177Z,97733.62
2023-04-16T03:40:22.077Z,97738.94
2023-04-16T03:42:48.970Z,97732.53
2023-04-16T03:45:15.989Z,97744.06
2023-04-16T03:47:42.865Z,97744.53
2023-04-16T03:50:10.215Z,97752.03
2023-04-16T03:52:37.129Z,97756.38
2023-04-16T03:55:04.305Z,97758.97
2023-04-16T03:57:31.352Z,97758.97
2023-04-16T03:59:58.197Z,97755.88
2023-04-16T04:02:25.371Z,97758.94
2023-04-16T04:04:52.467Z,97756.94
2023-04-16T04:07:19.413Z,97755.84
2023-04-16T04:09:46.249Z,97758.28
2023-04-16T04:12:13.698Z,97760.37
2023-04-16T04:14:40.620Z,97765.81
2023-04-16T04:17:08.472Z,97770.53
2023-04-16T04:19:35.586Z,97775.37
2023-04-16T04:22:02.440Z,97783.31
2023-04-16T04:24:29.296Z,97791.19
2023-04-16T04:26:57.329Z,97793.66
2023-04-16T04:29:24.248Z,97800.22
2023-04-16T04:31:51.450Z,97800.38
2023-04-16T04:34:18.424Z,97800.72
2023-04-16T04:36:45.356Z,97802.09
2023-04-16T04:39:12.222Z,97802.44
2023-04-16T04:41:39.051Z,97801.28
2023-04-16T04:44:05.912Z,97813.16
2023-04-16T04:46:32.891Z,97810.22
2023-04-16T04:48:59.861Z,97805.19
2023-04-16T04:51:27.311Z,97804.75
2023-04-16T04:53:54.172Z,97804.22
2023-04-16T04:56:21.067Z,97806.59
2023-04-16T04:58:49.764Z,97808.31
2023-04-16T05:01:16.899Z,97809.91
2023-04-16T05:03:44.489Z,97809.91
2023-04-16T05:06:11.537Z,97807.16
2023-04-16T05:08:38.438Z,97816.22
2023-04-16T05:11:05.780Z,97824.59
2023-04-16T05:13:32.640Z,97830.38
2023-04-16T05:16:00.103Z,97832.22
2023-04-16T05:18:26.971Z,97836.59
2023-04-16T05:20:53.932Z,97838.69
2023-04-16T05:23:20.789Z,97835.63
2023-04-16T05:25:47.633Z,97836.84
2023-04-16T05:28:14.510Z,97840.88
2023-04-16T05:30:41.478Z,97840.97
2023-04-16T05:33:08.357Z,97842.34
2023-04-16T05:35:35.332Z,97846.59
2023-04-16T05:38:02.254Z,97844.94
2023-04-16T05:40:29.175Z,97848.25
2023-04-16T05:42:56.040Z,97841.41
2023-04-16T05:45:22.890Z,97842.47
2023-04-16T05:47:49.939Z,97842.78
2023-04-16T05:50:16.875Z,97848.09
2023-04-16T05:52:43.748Z,97839.78
2023-04-16T05:55:10.761Z,97848.84
2023-04-16T05:57:37.648Z,97847.66
2023-04-16T06:00:04.950Z,97849.81
2023-04-16T06:02:32.115Z,97848.38
2023-04-16T06:04:59.026Z,97844.37
2023-04-16T06:07:25.877Z,97840.97
2023-04-16T06:09:52.787Z,97848.78
2023-04-16T06:12:19.658Z,97851.47
2023-04-16T06:14:46.508Z,97854.72
2023-04-16T06:17:13.423Z,97858.34
2023-04-16T06:19:40.288Z,97867.78
2023-04-16T06:22:08.068Z,97864.28
2023-04-16T06:24:34.995Z,97861.09
2023-04-16T06:27:02.933Z,97860.41
2023-04-16T06:29:40.599Z,97858.41
2023-04-16T06:32:08.736Z,97860.16
2023-04-16T06:34:35.840Z,97871.72
2023-04-16T06:37:02.731Z,97858.25
2023-04-16T06:39:29.594Z,97861.69
2023-04-16T06:41:56.505Z,97865.09
2023-04-16T06:44:23.437Z,97856.50
2023-04-16T06:46:51.243Z,97854.84
2023-04-16T06:49:18.157Z,97864.47
2023-04-16T06:51:45.180Z,97853.34
2023-04-16T06:54:12.043Z,97864.91
2023-04-16T06:56:38.901Z,97859.69
2023-04-16T06:59:05.806Z,97862.47
2023-04-16T07:01:32.740Z,97860.16
2023-04-16T07:03:59.891Z,97865.84
2023-04-16T07:06:27.334Z,97872.34
2023-04-16T07:08:54.330Z,97874.34
2023-04-16T07:11:21.469Z,97871.12
2023-04-16T07:13:48.326Z,97873.78
2023-04-16T07:16:15.224Z,97875.56
2023-04-16T07:18:42.101Z,97871.25
2023-04-16T07:21:08.937Z,97872.09
2023-04-16T07:23:35.840Z,97878.06
2023-04-16T07:26:02.752Z,97881.19
2023-04-16T07:28:29.593Z,97878.97
2023-04-16T07:30:56.497Z,97880.63
2023-04-16T07:33:23.392Z,97874.56
2023-04-16T07:35:51.369Z,97879.22
2023-04-16T07:38:18.320Z,97874.09
2023-04-16T07:40:45.196Z,97881.81
2023-04-16T07:43:12.151Z,97878.81
2023-04-16T07:45:40.057Z,97874.13
2023-04-16T07:48:07.936Z,97883.22
2023-04-16T07:50:34.862Z,97883.72
2023-04-16T07:53:01.866Z,97886.97
2023-04-16T07:55:28.777Z,97880.66
2023-04-16T07:57:55.857Z,97878.16
2023-04-16T08:00:22.863Z,97889.66
2023-04-16T08:02:49.935Z,97881.72
2023-04-16T08:05:17.160Z,97878.16
2023-04-16T08:07:44.100Z,97880.63
2023-04-16T08:10:11.244Z,97876.88
2023-04-16T08:12:38.213Z,97882.37
2023-04-16T08:15:06.206Z,97887.41
2023-04-16T08:17:34.619Z,97889.03
2023-04-16T08:20:01.978Z,97896.56
2023-04-16T08:22:28.943Z,97887.66
2023-04-16T08:24:55.905Z,97887.59
2023-04-16T08:27:22.799Z,97885.53
2023-04-16T08:29:49.845Z,97887.09
2023-04-16T08:32:16.835Z,97888.03
2023-04-16T08:34:43.886Z,97900.31
2023-04-16T08:37:10.859Z,97896.22
2023-04-16T08:39:37.941Z,97895.28
2023-04-16T08:42:06.410Z,97895.66
2023-04-16T08:44:35.495Z,97892.75
2023-04-16T08:47:02.810Z,97894.84
2023-04-16T08:49:29.863Z,97895.63
2023-04-16T08:51:57.444Z,97900.59
2023-04-16T08:54:44.729Z,97907.91
2023-04-16T08:57:14.522Z,97907.94
2023-04-16T08:59:48.688Z,97913.72
2023-04-16T09:02:16.070Z,97923.00
2023-04-16T09:04:43.378Z,97921.97
2023-04-16T09:07:11.002Z,97930.69
2023-04-16T09:09:39.269Z,97935.91
2023-04-16T09:12:06.384Z,97945.41
2023-04-16T09:14:33.276Z,97941.47
2023-04-16T09:17:02.581Z,97939.50
2023-04-16T09:19:29.569Z,97944.22
2023-04-16T09:21:56.533Z,97948.06
2023-04-16T09:24:23.516Z,97945.59
2023-04-16T09:26:52.841Z,97941.72
2023-04-16T09:29:37.286Z,97943.13
2023-04-16T09:32:06.566Z,97947.03
2023-04-16T09:34:34.993Z,97955.31
2023-04-16T09:37:20.410Z,97955.38
2023-04-16T09:39:57.770Z,97954.97
2023-04-16T09:42:27.555Z,97961.28
2023-04-16T09:44:56.864Z,97965.78
2023-04-16T09:47:42.947Z,97966.47
2023-04-16T09:50:13.000Z,97969.72
2023-04-16T09:52:40.192Z,97974.72
2023-04-16T09:55:07.331Z,97977.69
2023-04-16T09:57:38.086Z,97969.94
2023-04-16T10:00:07.946Z,97969.25
2023-04-16T10:02:39.361Z,97972.31
2023-04-16T10:05:06.817Z,97964.13
2023-04-16T10:07:35.256Z,97967.09
2023-04-16T10:10:03.703Z,97959.81
2023-04-16T10:12:32.902Z,97951.97
2023-04-16T10:14:59.917Z,97958.09
2023-04-16T10:17:27.435Z,97949.88
2023-04-16T10:19:55.130Z,97952.00
2023-04-16T10:22:22.019Z,97950.31
2023-04-16T10:24:49.290Z,97957.94
2023-04-16T10:27:17.317Z,97951.81
2023-04-16T10:29:44.564Z,97958.19
2023-04-16T10:32:11.802Z,97951.28
2023-04-16T10:34:39.373Z,97938.19
2023-04-16T10:37:06.456Z,97949.19
2023-04-16T10:39:39.304Z,97945.28
2023-04-16T10:42:12.451Z,97942.37
2023-04-16T10:44:45.297Z,97935.94
2023-04-16T10:47:14.031Z,97935.91
2023-04-16T10:49:42.629Z,97926.28
2023-04-16T10:52:19.621Z,97931.47
2023-04-16T10:54:48.543Z,97931.94
2023-04-16T10:57:17.988Z,97929.00
2023-04-16T10:59:46.160Z,97926.91
2023-04-16T11:02:21.065Z,97927.47
2023-04-16T11:04:49.657Z,97926.69
2023-04-16T11:07:32.748Z,97917.22
2023-04-16T11:10:02.516Z,97910.03
2023-04-16T11:12:29.391Z,97922.28
2023-04-16T11:15:06.030Z,97917.06
2023-04-16T11:17:44.755Z,97911.25
2023-04-16T11:20:22.284Z,97922.81
2023-04-16T11:22:50.172Z,97912.84
2023-04-16T11:25:22.177Z,97907.13
2023-04-16T11:27:49.898Z,97915.78
2023-04-16T11:30:17.615Z,97911.91
2023-04-16T11:32:44.969Z,97908.38
2023-04-16T11:35:17.317Z,97904.16
2023-04-16T11:37:44.897Z,97902.41
2023-04-16T11:40:12.606Z,97904.25
2023-04-16T11:42:41.077Z,97907.41
2023-04-16T11:45:12.098Z,97895.03
2023-04-16T11:47:46.886Z,97896.06
2023-04-16T11:50:23.665Z,97889.94
2023-04-16T11:52:51.533Z,97883.75
2023-04-16T11:55:18.738Z,97885.66
2023-04-16T11:57:46.291Z,97883.88
2023-04-16T12:00:14.270Z,97880.38
2023-04-16T12:02:45.727Z,97884.34
2023-04-16T12:05:37.384Z,97890.09
2023-04-16T12:08:08.816Z,97868.06
2023-04-16T12:10:37.551Z,97880.06
2023-04-16T12:13:12.924Z,97866.19
2023-04-16T12:15:50.808Z,97873.81
2023-04-16T12:18:19.351Z,97868.72
2023-04-16T12:20:47.199Z,97873.00
2023-04-16T12:23:30.695Z,97873.78
2023-04-16T12:26:02.752Z,97871.09
2023-04-16T12:28:34.032Z,97866.97
2023-04-16T12:31:02.575Z,97851.97
2023-04-16T12:33:29.804Z,97861.97
2023-04-16T12:35:57.178Z,97858.34
2023-04-16T12:38:25.699Z,97860.09
2023-04-16T12:40:53.000Z,97861.50
2023-04-16T12:43:21.611Z,97858.87
2023-04-16T12:45:49.573Z,97861.19
2023-04-16T12:48:16.490Z,97862.94
2023-04-16T12:50:44.557Z,97863.00
2023-04-16T12:53:12.112Z,97850.03
2023-04-16T12:55:39.335Z,97861.97
2023-04-16T12:58:06.820Z,97867.81
2023-04-16T13:00:33.749Z,97862.16
2023-04-16T13:03:00.784Z,97860.88
2023-04-16T13:05:27.882Z,97870.53
2023-04-16T13:07:54.783Z,97854.94
2023-04-16T13:10:22.265Z,97864.00
2023-04-16T13:12:49.247Z,97845.75
2023-04-16T13:15:16.324Z,97867.00
2023-04-16T13:17:43.234Z,97854.25
2023-04-16T13:20:10.672Z,97856.97
2023-04-16T13:22:37.736Z,97866.25
2023-04-16T13:25:05.169Z,97857.97
2023-04-16T13:27:32.760Z,97852.53
2023-04-16T13:29:59.653Z,97857.16
2023-04-16T13:32:26.824Z,97850.41
2023-04-16T13:34:53.739Z,97860.25
2023-04-16T13:37:20.702Z,97863.66
2023-04-16T13:39:47.608Z,97862.59
2023-04-16T13:42:14.498Z,97860.09
2023-04-16T13:44:41.379Z,97859.03
2023-04-16T13:47:08.387Z,97858.91
2023-04-16T13:49:36.120Z,97853.72
2023-04-16T13:52:03.526Z,97866.63
2023-04-16T13:54:30.527Z,97865.03
2023-04-16T13:56:57.440Z,97865.50
2023-04-16T13:59:24.381Z,97857.53
2023-04-16T14:01:51.666Z,97865.13
2023-04-16T14:04:18.796Z,97856.66
2023-04-16T14:06:45.819Z,97857.78
2023-04-16T14:09:12.908Z,97858.03
2023-04-16T14:11:39.950Z,97861.78
2023-04-16T14:14:06.806Z,97848.38
2023-04-16T14:16:35.428Z,97852.16
2023-04-16T14:19:02.322Z,97850.41
2023-04-16T14:21:29.180Z,97855.75
2023-04-16T14:23:56.128Z,97851.13
2023-04-16T14:26:23.300Z,97845.63
2023-04-16T14:28:51.251Z,97848.16
2023-04-16T14:31:18.454Z,97852.88
2023-04-16T14:33:45.593Z,97860.47
2023-04-16T14:36:12.469Z,97862.78
2023-04-16T14:38:39.744Z,97862.62
2023-04-16T14:41:06.659Z,97869.78
2023-04-16T14:43:33.579Z,97871.22
2023-04-16T14:46:00.533Z,97858.91
2023-04-16T14:48:27.486Z,97865.38
2023-04-16T14:50:54.385Z,97860.88
2023-04-16T14:53:22.980Z,97868.63
2023-04-16T14:55:49.879Z,97862.84
2023-04-16T14:58:16.770Z,97870.53
2023-04-16T15:00:43.716Z,97865.38
2023-04-16T15:03:11.367Z,97865.31
2023-04-16T15:05:39.053Z,97858.91
2023-04-16T15:08:06.256Z,97873.84
2023-04-16T15:10:33.229Z,97867.28
2023-04-16T15:13:00.144Z,97869.31
2023-04-16T15:15:27.082Z,97864.84
2023-04-16T15:17:54.062Z,97868.03
2023-04-16T15:20:20.983Z,97870.88
2023-04-16T15:22:47.846Z,97861.97
2023-04-16T15:25:14.787Z,97863.53
2023-04-16T15:27:41.699Z,97874.25
2023-04-16T15:30:09.089Z,97870.66
2023-04-16T15:32:36.048Z,97871.94
2023-04-16T15:35:03.690Z,97873.38
2023-04-16T15:37:31.202Z,97869.56
2023-04-16T15:39:58.054Z,97875.59
2023-04-16T15:42:25.031Z,97883.19
2023-04-16T15:44:51.927Z,97882.63
2023-04-16T15:47:18.915Z,97884.31
2023-04-16T15:49:45.802Z,97878.00
2023-04-16T15:52:12.808Z,97883.44
2023-04-16T15:54:39.789Z,97881.31
2023-04-16T15:57:06.682Z,97880.78
2023-04-16T15:59:33.726Z,97881.34
2023-04-16T16:02:01.250Z,97883.13
2023-04-16T16:04:28.625Z,97886.56
2023-04-16T16:06:55.934Z,97880.63
2023-04-16T16:09:26.766Z,97870.72
2023-04-16T16:11:54.561Z,97871.12
2023-04-16T16:14:22.179Z,97874.37
2023-04-16T16:16:49.180Z,97873.81
2023-04-16T16:19:16.735Z,97876.41
2023-04-16T16:21:43.664Z,97876.63
2023-04-16T16:24:10.598Z,97875.59
2023-04-16T16:26:37.773Z,97881.47
2023-04-16T16:29:05.802Z,97883.03
2023-04-16T16:31:32.797Z,97887.00
2023-04-16T16:33:59.768Z,97877.75
2023-04-16T16:36:26.751Z,97894.22
2023-04-16T16:38:53.705Z,97892.00
2023-04-16T16:41:20.738Z,97892.44
2023-04-16T16:43:47.589Z,97896.25
2023-04-16T16:46:14.516Z,97894.03
2023-04-16T16:48:41.449Z,97895.13
2023-04-16T16:51:10.750Z,97898.06
2023-04-16T16:53:37.659Z,97891.81
2023-04-16T16:56:04.699Z,97898.66
2023-04-16T16:58:31.684Z,97897.19
2023-04-16T17:00:59.492Z,97902.03
2023-04-16T17:03:26.768Z,97905.56
2023-04-16T17:05:53.723Z,97906.19
2023-04-16T17:08:20.700Z,97908.97
2023-04-16T17:10:47.993Z,97901.56
2023-04-16T17:13:19.862Z,97903.38
2023-04-16T17:15:47.134Z,97913.41
2023-04-16T17:18:14.093Z,97910.38
2023-04-16T17:20:41.174Z,97915.09
2023-04-16T17:23:08.102Z,97921.06
2023-04-16T17:25:35.105Z,97911.44
2023-04-16T17:28:02.562Z,97911.69
2023-04-16T17:30:31.226Z,97905.97
2023-04-16T17:32:58.417Z,97911.31
2023-04-16T17:35:25.580Z,97915.25
2023-04-16T17:37:52.548Z,97917.38
2023-04-16T17:40:19.413Z,97912.25
2023-04-16T17:42:46.413Z,97915.03
2023-04-16T17:45:13.709Z,97920.91
2023-04-16T17:47:40.848Z,97917.09
2023-04-16T17:50:09.372Z,97917.97
2023-04-16T17:52:37.673Z,97918.56
2023-04-16T17:55:06.062Z,97917.84
2023-04-16T17:57:32.943Z,97909.72
2023-04-16T18:00:00.165Z,97919.56
2023-04-16T18:02:27.296Z,97928.28
2023-04-16T18:04:54.499Z,97927.78
2023-04-16T18:07:21.510Z,97935.37
2023-04-16T18:09:48.456Z,97930.91
2023-04-16T18:12:15.439Z,97935.00
2023-04-16T18:14:44.923Z,97939.69
2023-04-16T18:17:11.905Z,97933.59
2023-04-16T18:19:40.683Z,97937.38
2023-04-16T18:22:07.674Z,97942.59
2023-04-16T18:24:36.572Z,97944.88
2023-04-16T18:27:04.053Z,97941.09
2023-04-16T18:29:33.948Z,97952.75
2023-04-16T18:32:04.320Z,97954.47
2023-04-16T18:34:32.033Z,97950.81
2023-04-16T18:36:58.907Z,97957.34
2023-04-16T18:39:25.842Z,97948.88
2023-04-16T18:41:52.794Z,97954.69
2023-04-16T18:44:20.126Z,97958.56
2023-04-16T18:46:47.134Z,97958.00
2023-04-16T18:49:14.134Z,97968.38
2023-04-16T18:51:42.237Z,97963.94
2023-04-16T18:54:09.395Z,97961.00
2023-04-16T18:56:36.388Z,97963.03
2023-04-16T18:59:03.271Z,97959.13
2023-04-16T19:01:30.314Z,97957.66
2023-04-16T19:03:57.462Z,97958.78
2023-04-16T19:06:24.403Z,97963.16
2023-04-16T19:08:51.455Z,97971.03
2023-04-16T19:11:18.324Z,97965.16
2023-04-16T19:13:45.206Z,97970.72
2023-04-16T19:16:12.507Z,97970.56
2023-04-16T19:18:39.543Z,97967.34
2023-04-16T19:21:07.405Z,97961.94
2023-04-16T19:23:34.324Z,97965.63
2023-04-16T19:26:01.785Z,97964.28
2023-04-16T19:28:28.890Z,97967.63
2023-04-16T19:30:56.258Z,97961.38
2023-04-16T19:33:23.253Z,97958.59
2023-04-16T19:35:50.196Z,97962.00
2023-04-16T19:38:17.159Z,97959.22
2023-04-16T19:40:46.546Z,97958.19
2023-04-16T19:43:13.849Z,97963.88
2023-04-16T19:45:48.113Z,97960.56
2023-04-16T19:48:15.091Z,97963.81
2023-04-16T19:50:42.795Z,97966.59
2023-04-16T19:53:10.719Z,97958.50
2023-04-16T19:55:39.848Z,97963.19
2023-04-16T19:58:07.046Z,97959.00
2023-04-16T20:00:35.279Z,97956.16
2023-04-16T20:03:02.491Z,97956.91
2023-04-16T20:05:29.641Z,97949.66
2023-04-16T20:07:56.758Z,97952.56
2023-04-16T20:10:24.160Z,97947.22
2023-04-16T20:12:51.108Z,97953.06
2023-04-16T20:15:18.521Z,97946.59
2023-04-16T20:17:46.032Z,97942.28
2023-04-16T20:20:15.872Z,97950.87
2023-04-16T20:22:43.504Z,97957.94
2023-04-16T20:25:10.564Z,97944.66
2023-04-16T20:27:37.514Z,97947.56
2023-04-16T20:30:06.338Z,97959.56
2023-04-16T20:32:33.507Z,97958.44
2023-04-16T20:35:00.513Z,97962.25
2023-04-16T20:37:29.223Z,97952.69
2023-04-16T20:39:56.480Z,97948.34
2023-04-16T20:42:26.516Z,97949.53
2023-04-16T20:44:56.706Z,97951.16
2023-04-16T20:47:23.917Z,97948.28
2023-04-16T20:49:53.007Z,97956.06
2023-04-16T20:52:20.080Z,97948.38
2023-04-16T20:54:47.852Z,97947.28
2023-04-16T20:57:14.829Z,97940.34
2023-04-16T20:59:41.758Z,97941.47
2023-04-16T21:02:09.118Z,97947.44
2023-04-16T21:04:36.309Z,97954.56
2023-04-16T21:07:04.442Z,97947.97
2023-04-16T21:09:31.743Z,97941.78
2023-04-16T21:11:58.747Z,97948.31
2023-04-16T21:14:25.794Z,97952.72
2023-04-16T21:16:52.735Z,97956.03
2023-04-16T21:19:20.164Z,97953.47
2023-04-16T21:21:47.134Z,97953.38
2023-04-16T21:24:14.086Z,97949.59
2023-04-16T21:26:41.050Z,97953.56
2023-04-16T21:29:07.959Z,97947.44
2023-04-16T21:31:35.027Z,97945.59
2023-04-16T21:34:01.925Z,97936.59
2023-04-16T21:36:29.403Z,97942.87
2023-04-16T21:38:56.318Z,97932.00
2023-04-16T21:41:23.181Z,97941.63
2023-04-16T21:43:50.018Z,97929.94
2023-04-16T21:46:16.986Z,97920.09
2023-04-16T21:48:43.978Z,97914.03
2023-04-16T21:51:10.870Z,97910.44
2023-04-16T21:53:39.190Z,97902.78
2023-04-16T21:56:06.781Z,97901.41
2023-04-16T21:58:33.712Z,97921.13
2023-04-16T22:01:00.626Z,97917.28
2023-04-16T22:03:28.158Z,97907.03
2023-04-16T22:06:01.128Z,97898.69
2023-04-16T22:08:29.015Z,97899.06
2023-04-16T22:10:59.989Z,97889.25
2023-04-16T22:13:27.275Z,97883.53
2023-04-16T22:15:55.408Z,97884.72
2023-04-16T22:18:25.742Z,97880.13
2023-04-16T22:20:56.190Z,97878.47
2023-04-16T22:23:26.239Z,97880.47
2023-04-16T22:25:54.976Z,97873.69
2023-04-16T22:28:21.849Z,97865.06
2023-04-16T22:30:49.002Z,97895.44
2023-04-16T22:33:16.040Z,97896.25
2023-04-16T22:35:42.987Z,97892.38
2023-04-16T22:38:10.290Z,97884.72
2023-04-16T22:40:37.285Z,97886.47
2023-04-16T22:43:04.335Z,97878.00
2023-04-16T22:45:31.310Z,97871.00
2023-04-16T22:47:58.254Z,97878.62
2023-04-16T22:50:25.126Z,97878.59
2023-04-16T22:52:52.001Z,97888.47
2023-04-16T22:55:19.015Z,97886.66
2023-04-16T22:57:46.057Z,97889.16
2023-04-16T23:00:17.957Z,97876.59
2023-04-16T23:02:45.663Z,97875.94
2023-04-16T23:05:12.635Z,97870.53
2023-04-16T23:07:39.528Z,97865.09
2023-04-16T23:10:08.738Z,97868.78
2023-04-16T23:12:37.622Z,97860.31
2023-04-16T23:15:06.858Z,97858.25
2023-04-16T23:17:35.203Z,97847.59
2023-04-16T23:20:02.521Z,97853.94
2023-04-16T23:22:29.494Z,97848.78
2023-04-16T23:24:56.520Z,97844.31
2023-04-16T23:27:23.409Z,97840.97
2023-04-16T23:29:50.377Z,97842.59
2023-04-16T23:32:17.389Z,97842.03
2023-04-16T23:34:44.306Z,97839.38
2023-04-16T23:37:11.180Z,97843.28
2023-04-16T23:39:38.078Z,97839.75
2023-04-16T23:42:05.044Z,97834.09
2023-04-16T23:44:31.981Z,97831.78
2023-04-16T23:46:59.047Z,97834.84
2023-04-16T23:49:26.360Z,97827.25
2023-04-16T23:51:53.224Z,97822.09
2023-04-16T23:54:20.206Z,97833.25
2023-04-16T23:56:47.226Z,97829.56
2023-04-16T23:59:14.463Z,97821.84
